Port Star — 3EAS6 — position and weather

sailwx.info

Track history (hours):
 
Tides and Currents Weather Stations Pressure Air Temp Water Temp Dewpoint Dewpoint Depression Visibility Wind Speed Wind Dir Waves Ship Positions

Port Star

Last reported at 2016-Jun-25 03:33 UTC. Time now 2016-Jun-25 03:39 UTC.
Position N 51°21' E 004°16'.

Length 175.5 m; beam 29.4 m.

Type: Ship. MMSI: 356105000.

Date/timePositionNaut miles runAvg speedWind from/ knotsBaromVisibWave heightAir tempDewpointWater temp
2016-Jun-25 03:33N 51°21' E 004°16'5 4.6
2016-Jun-25 02:34N 51°17' E 004°20'0 0.5
2016-Jun-25 01:33N 51°16' E 004°20'3 2.5
2016-Jun-25 00:33N 51°15' E 004°24'0 0.1
2016-Jun-24 23:32N 51°15' E 004°24'0 0.0
2016-Jun-24 22:32N 51°15' E 004°24'0 0.0
2016-Jun-24 21:32N 51°15' E 004°24'0 0.0
2016-Jun-24 20:32N 51°15' E 004°24'0 0.0
2016-Jun-24 19:32N 51°15' E 004°24'0 0.0
2016-Jun-24 18:32N 51°15' E 004°24'0 0.0
2016-Jun-24 17:32N 51°15' E 004°24'0 0.0
2016-Jun-24 16:32N 51°15' E 004°24'0 0.0
2016-Jun-24 15:32N 51°15' E 004°24'0 0.0
2016-Jun-24 14:32N 51°15' E 004°24'0 0.0
2016-Jun-24 13:32N 51°15' E 004°24'0 0.0
2016-Jun-24 12:32N 51°15' E 004°24'0 0.0
2016-Jun-24 11:32N 51°15' E 004°24'0 0.0
2016-Jun-24 10:32N 51°15' E 004°24'0 0.0
2016-Jun-24 09:32N 51°15' E 004°24'0 0.0
2016-Jun-24 08:32N 51°15' E 004°24'0 0.0
2016-Jun-24 07:32N 51°15' E 004°24'0 0.0
2016-Jun-24 04:32N 51°15' E 004°24'0 0.0
2016-Jun-24 03:32N 51°15' E 004°24'0 0.0
2016-Jun-24 02:32N 51°15' E 004°24'0 0.0
2016-Jun-24 01:32N 51°15' E 004°24'0 0.0
2016-Jun-24 00:32N 51°15' E 004°24'0 0.0
2016-Jun-23 23:32N 51°15' E 004°24'0 0.0
2016-Jun-23 22:32N 51°15' E 004°24'0 0.0
2016-Jun-23 21:32N 51°15' E 004°24'0 0.0
2016-Jun-23 20:29N 51°15' E 004°24'0 0.0
2016-Jun-23 19:32N 51°15' E 004°24'0 0.0
2016-Jun-23 18:32N 51°15' E 004°24'0 0.0
2016-Jun-23 17:32N 51°15' E 004°24'0 0.0
2016-Jun-23 16:32N 51°15' E 004°24'0 0.0
2016-Jun-23 15:29N 51°15' E 004°24'0 0.0
2016-Jun-23 14:33N 51°15' E 004°24'0 0.0
2016-Jun-23 13:33N 51°15' E 004°24'0 0.0
2016-Jun-23 12:33N 51°15' E 004°24'0 0.0
2016-Jun-23 11:33N 51°15' E 004°24'0 0.0
2016-Jun-23 10:33N 51°15' E 004°24'0 0.0
2016-Jun-23 09:33N 51°15' E 004°24'0 0.0
2016-Jun-23 08:33N 51°15' E 004°24'0 0.0
2016-Jun-23 07:33N 51°15' E 004°24'0 0.0
2016-Jun-23 05:33N 51°15' E 004°24'2 2.4
2016-Jun-23 04:33N 51°16' E 004°20'1 0.7
2016-Jun-23 03:34N 51°17' E 004°20'8 7.5
2016-Jun-23 02:33N 51°23' E 004°13'9 9.5
2016-Jun-23 01:34N 51°25' E 003°58'10 9.8
2016-Jun-23 00:33N 51°24' E 003°43'10 9.8
2016-Jun-22 23:33N 51°25' E 003°27'1312.8
2016-Jun-22 22:33N 51°24' E 003°06'1110.8
2016-Jun-22 21:33N 51°22' E 002°50'9 9.0
2016-Jun-22 20:33N 51°22' E 002°35'6 5.8
2016-Jun-22 19:33N 51°21' E 002°26'8 6.3
2016-Jun-22 18:17N 51°17' E 002°15'6 7.9
2016-Jun-22 17:33N 51°15' E 002°07'9 9.2
2016-Jun-22 16:33N 51°10' E 001°54'1312.8
2016-Jun-22 15:33N 51°02' E 001°38'1515.0
2016-Jun-22 14:33N 50°49' E 001°25'5613.9
2016-Jun-22 10:33N 50°21' E 000°09'1615.7
2016-Jun-22 09:33N 50°17' W 000°14'1616.1
2016-Jun-22 08:33N 50°13' W 000°39'8912.4
2016-Jun-22 01:21N 49°48' W 002°53'1011.7
2016-Jun-22 00:30N 49°44' W 003°06'1212.2
2016-Jun-21 23:33N 49°38' W 003°22'3812.7
2016-Jun-21 20:32N 49°19' W 004°13'3414.0
2016-Jun-21 18:07N 49°02' W 004°58'814.9
2016-Jun-21 17:33N 48°58' W 005°09'1514.8
2016-Jun-21 16:34N 48°50' W 005°28'1814.6
2016-Jun-21 15:21N 48°37' W 005°45'1215.0
2016-Jun-21 14:33N 48°26' W 005°53'52612.7
2016-Jun-19 21:11N 40°08' W 009°50'5012.2
2016-Jun-19 17:07N 39°18' W 009°51'712.0
2016-Jun-19 16:34N 39°11' W 009°50'1212.0
2016-Jun-19 15:33N 38°59' W 009°51'1211.9
2016-Jun-19 14:33N 38°48' W 009°51'1212.1
2016-Jun-19 13:34N 38°35' W 009°49'1211.9
2016-Jun-19 12:34N 38°24' W 009°45'1212.0
2016-Jun-19 11:34N 38°12' W 009°43'1212.0
2016-Jun-19 10:34N 38°01' W 009°39'1212.4
2016-Jun-19 09:34N 37°49' W 009°34'1312.6
2016-Jun-19 08:33N 37°36' W 009°31'1312.7
2016-Jun-19 07:33N 37°24' W 009°28'1312.9
2016-Jun-19 06:33N 37°11' W 009°24'1212.5
2016-Jun-19 05:33N 36°59' W 009°21'1212.2
2016-Jun-19 04:33N 36°48' W 009°13'2612.8
2016-Jun-19 02:33N 36°38' W 008°44'1413.8
2016-Jun-19 01:34N 36°34' W 008°28'1413.7
2016-Jun-19 00:33N 36°30' W 008°11'1413.6
2016-Jun-18 23:30N 36°25' W 007°55'1813.4
2016-Jun-18 22:11N 36°19' W 007°34'813.3
2016-Jun-18 21:33N 36°17' W 007°24'1313.4
2016-Jun-18 20:33N 36°13' W 007°09'7511.9
2016-Jun-18 14:14N 35°58' W 005°38'811.1
2016-Jun-18 13:33N 35°59' W 005°28'1110.7
2016-Jun-18 12:33N 36°02' W 005°16'18112.5
2016-Jun-17 22:06N 36°49' W 001°38'1014.3
2016-Jun-17 21:26N 36°55' W 001°29'2714.3
2016-Jun-17 19:33N 37°13' W 001°04'1413.8
2016-Jun-17 18:33N 37°22' W 000°51'1313.0
2016-Jun-17 17:33N 37°31' W 000°38'1212.2
2016-Jun-17 16:33N 37°42' W 000°31'1313.1
2016-Jun-17 15:33N 37°54' W 000°28'1313.2
2016-Jun-17 14:33N 38°07' W 000°24'1010.0
2016-Jun-17 13:31N 38°18' W 000°27'  
2016-Jun-15 07:15N 38°19' W 000°27'0 0.1
2016-Jun-15 06:15N 38°19' W 000°27'0 0.0
2016-Jun-15 05:33N 38°19' W 000°27'0 0.0
2016-Jun-15 04:27N 38°19' W 000°27'  
Track history (hours):
 
Tides and Currents Weather Stations Pressure Air Temp Water Temp Dewpoint Dewpoint Depression Visibility Wind Speed Wind Dir Waves Ship Positions

Port Star

Last reported at 2016-Jun-25 03:33 UTC. Time now 2016-Jun-25 03:39 UTC.
Position N 51°21' E 004°16'.

Length 175.5 m; beam 29.4 m.

Type: Ship. MMSI: 356105000.

Date/timePositionNaut miles runAvg speedWind from/ knotsBaromVisibWave heightAir tempDewpointWater temp
2016-Jun-25 03:33N 51°21' E 004°16'5 4.6
2016-Jun-25 02:34N 51°17' E 004°20'0 0.5
2016-Jun-25 01:33N 51°16' E 004°20'3 2.5
2016-Jun-25 00:33N 51°15' E 004°24'0 0.1
2016-Jun-24 23:32N 51°15' E 004°24'0 0.0
2016-Jun-24 22:32N 51°15' E 004°24'0 0.0
2016-Jun-24 21:32N 51°15' E 004°24'0 0.0
2016-Jun-24 20:32N 51°15' E 004°24'0 0.0
2016-Jun-24 19:32N 51°15' E 004°24'0 0.0
2016-Jun-24 18:32N 51°15' E 004°24'0 0.0
2016-Jun-24 17:32N 51°15' E 004°24'0 0.0
2016-Jun-24 16:32N 51°15' E 004°24'0 0.0
2016-Jun-24 15:32N 51°15' E 004°24'0 0.0
2016-Jun-24 14:32N 51°15' E 004°24'0 0.0
2016-Jun-24 13:32N 51°15' E 004°24'0 0.0
2016-Jun-24 12:32N 51°15' E 004°24'0 0.0
2016-Jun-24 11:32N 51°15' E 004°24'0 0.0
2016-Jun-24 10:32N 51°15' E 004°24'0 0.0
2016-Jun-24 09:32N 51°15' E 004°24'0 0.0
2016-Jun-24 08:32N 51°15' E 004°24'0 0.0
2016-Jun-24 07:32N 51°15' E 004°24'0 0.0
2016-Jun-24 04:32N 51°15' E 004°24'0 0.0
2016-Jun-24 03:32N 51°15' E 004°24'0 0.0
2016-Jun-24 02:32N 51°15' E 004°24'0 0.0
2016-Jun-24 01:32N 51°15' E 004°24'0 0.0
2016-Jun-24 00:32N 51°15' E 004°24'0 0.0
2016-Jun-23 23:32N 51°15' E 004°24'0 0.0
2016-Jun-23 22:32N 51°15' E 004°24'0 0.0
2016-Jun-23 21:32N 51°15' E 004°24'0 0.0
2016-Jun-23 20:29N 51°15' E 004°24'0 0.0
2016-Jun-23 19:32N 51°15' E 004°24'0 0.0
2016-Jun-23 18:32N 51°15' E 004°24'0 0.0
2016-Jun-23 17:32N 51°15' E 004°24'0 0.0
2016-Jun-23 16:32N 51°15' E 004°24'0 0.0
2016-Jun-23 15:29N 51°15' E 004°24'0 0.0
2016-Jun-23 14:33N 51°15' E 004°24'0 0.0
2016-Jun-23 13:33N 51°15' E 004°24'0 0.0
2016-Jun-23 12:33N 51°15' E 004°24'0 0.0
2016-Jun-23 11:33N 51°15' E 004°24'0 0.0
2016-Jun-23 10:33N 51°15' E 004°24'0 0.0
2016-Jun-23 09:33N 51°15' E 004°24'0 0.0
2016-Jun-23 08:33N 51°15' E 004°24'0 0.0
2016-Jun-23 07:33N 51°15' E 004°24'0 0.0
2016-Jun-23 05:33N 51°15' E 004°24'2 2.4
2016-Jun-23 04:33N 51°16' E 004°20'1 0.7
2016-Jun-23 03:34N 51°17' E 004°20'8 7.5
2016-Jun-23 02:33N 51°23' E 004°13'9 9.5
2016-Jun-23 01:34N 51°25' E 003°58'10 9.8
2016-Jun-23 00:33N 51°24' E 003°43'10 9.8
2016-Jun-22 23:33N 51°25' E 003°27'1312.8
2016-Jun-22 22:33N 51°24' E 003°06'1110.8
2016-Jun-22 21:33N 51°22' E 002°50'9 9.0
2016-Jun-22 20:33N 51°22' E 002°35'6 5.8
2016-Jun-22 19:33N 51°21' E 002°26'8 6.3
2016-Jun-22 18:17N 51°17' E 002°15'6 7.9
2016-Jun-22 17:33N 51°15' E 002°07'9 9.2
2016-Jun-22 16:33N 51°10' E 001°54'1312.8
2016-Jun-22 15:33N 51°02' E 001°38'1515.0
2016-Jun-22 14:33N 50°49' E 001°25'5613.9
2016-Jun-22 10:33N 50°21' E 000°09'1615.7
2016-Jun-22 09:33N 50°17' W 000°14'1616.1
2016-Jun-22 08:33N 50°13' W 000°39'8912.4
2016-Jun-22 01:21N 49°48' W 002°53'1011.7
2016-Jun-22 00:30N 49°44' W 003°06'1212.2
2016-Jun-21 23:33N 49°38' W 003°22'3812.7
2016-Jun-21 20:32N 49°19' W 004°13'3414.0
2016-Jun-21 18:07N 49°02' W 004°58'814.9
2016-Jun-21 17:33N 48°58' W 005°09'1514.8
2016-Jun-21 16:34N 48°50' W 005°28'1814.6
2016-Jun-21 15:21N 48°37' W 005°45'1215.0
2016-Jun-21 14:33N 48°26' W 005°53'52612.7
2016-Jun-19 21:11N 40°08' W 009°50'5012.2
2016-Jun-19 17:07N 39°18' W 009°51'712.0
2016-Jun-19 16:34N 39°11' W 009°50'1212.0
2016-Jun-19 15:33N 38°59' W 009°51'1211.9
2016-Jun-19 14:33N 38°48' W 009°51'1212.1
2016-Jun-19 13:34N 38°35' W 009°49'1211.9
2016-Jun-19 12:34N 38°24' W 009°45'1212.0
2016-Jun-19 11:34N 38°12' W 009°43'1212.0
2016-Jun-19 10:34N 38°01' W 009°39'1212.4
2016-Jun-19 09:34N 37°49' W 009°34'1312.6
2016-Jun-19 08:33N 37°36' W 009°31'1312.7
2016-Jun-19 07:33N 37°24' W 009°28'1312.9
2016-Jun-19 06:33N 37°11' W 009°24'1212.5
2016-Jun-19 05:33N 36°59' W 009°21'1212.2
2016-Jun-19 04:33N 36°48' W 009°13'2612.8
2016-Jun-19 02:33N 36°38' W 008°44'1413.8
2016-Jun-19 01:34N 36°34' W 008°28'1413.7
2016-Jun-19 00:33N 36°30' W 008°11'1413.6
2016-Jun-18 23:30N 36°25' W 007°55'1813.4
2016-Jun-18 22:11N 36°19' W 007°34'813.3
2016-Jun-18 21:33N 36°17' W 007°24'1313.4
2016-Jun-18 20:33N 36°13' W 007°09'7511.9
2016-Jun-18 14:14N 35°58' W 005°38'811.1
2016-Jun-18 13:33N 35°59' W 005°28'1110.7
2016-Jun-18 12:33N 36°02' W 005°16'18112.5
2016-Jun-17 22:06N 36°49' W 001°38'1014.3
2016-Jun-17 21:26N 36°55' W 001°29'2714.3
2016-Jun-17 19:33N 37°13' W 001°04'1413.8
2016-Jun-17 18:33N 37°22' W 000°51'1313.0
2016-Jun-17 17:33N 37°31' W 000°38'1212.2
2016-Jun-17 16:33N 37°42' W 000°31'1313.1
2016-Jun-17 15:33N 37°54' W 000°28'1313.2
2016-Jun-17 14:33N 38°07' W 000°24'1010.0
2016-Jun-17 13:31N 38°18' W 000°27'  
2016-Jun-15 07:15N 38°19' W 000°27'0 0.1
2016-Jun-15 06:15N 38°19' W 000°27'0 0.0
2016-Jun-15 05:33N 38°19' W 000°27'0 0.0
2016-Jun-15 04:27N 38°19' W 000°27'  

Dump ship's entire track history